createdAt,value
2018-06-08T00:01:33.165Z,19.00
2018-06-08T00:04:02.074Z,19.00
2018-06-08T00:06:30.974Z,18.90
2018-06-08T00:08:59.949Z,18.90
2018-06-08T00:11:28.845Z,18.80
2018-06-08T00:13:57.781Z,18.70
2018-06-08T00:16:26.694Z,18.70
2018-06-08T00:18:55.615Z,18.60
2018-06-08T00:21:24.536Z,18.60
2018-06-08T00:23:53.482Z,18.50
2018-06-08T00:26:22.433Z,18.50
2018-06-08T00:28:51.348Z,18.50
2018-06-08T00:31:20.253Z,18.40
2018-06-08T00:33:49.228Z,18.50
2018-06-08T00:38:46.614Z,18.40
2018-06-08T00:43:44.030Z,18.20
2018-06-08T00:46:12.927Z,18.20
2018-06-08T00:48:41.845Z,18.20
2018-06-08T00:51:10.762Z,18.20
2018-06-08T00:53:39.663Z,18.10
2018-06-08T00:56:19.389Z,18.00
2018-06-08T00:58:48.314Z,18.00
2018-06-08T01:01:17.218Z,18.00
2018-06-08T01:03:46.146Z,18.00
2018-06-08T01:06:15.042Z,18.00
2018-06-08T01:11:12.442Z,17.90
2018-06-08T01:13:41.336Z,17.90
2018-06-08T01:16:10.270Z,17.90
2018-06-08T01:18:39.225Z,17.90
2018-06-08T01:21:08.127Z,18.00
2018-06-08T01:23:37.069Z,17.90
2018-06-08T01:28:34.455Z,17.90
2018-06-08T01:33:31.846Z,17.80
2018-06-08T01:36:00.729Z,17.80
2018-06-08T01:38:29.617Z,17.80
2018-06-08T01:40:58.530Z,17.80
2018-06-08T01:43:27.472Z,17.80
2018-06-08T01:45:56.380Z,17.70
2018-06-08T01:48:25.341Z,17.70
2018-06-08T01:50:54.287Z,17.60
2018-06-08T01:53:23.187Z,17.60
2018-06-08T01:55:52.146Z,17.60
2018-06-08T01:58:21.073Z,17.60
2018-06-08T02:00:50.058Z,17.50
2018-06-08T02:03:18.971Z,17.50
2018-06-08T02:05:47.857Z,17.40
2018-06-08T02:08:16.772Z,17.40
2018-06-08T02:10:45.701Z,17.40
2018-06-08T02:13:14.617Z,17.40
2018-06-08T02:15:43.552Z,17.40
2018-06-08T02:18:12.478Z,17.50
2018-06-08T02:20:41.770Z,17.50
2018-06-08T02:25:39.161Z,17.50
2018-06-08T02:28:08.065Z,17.40
2018-06-08T02:30:37.007Z,17.40
2018-06-08T02:33:05.950Z,17.40
2018-06-08T02:35:34.841Z,17.40
2018-06-08T02:38:03.773Z,17.40
2018-06-08T02:40:32.707Z,17.40
2018-06-08T02:43:01.612Z,17.40
2018-06-08T02:45:30.521Z,17.40
2018-06-08T02:47:59.490Z,17.40
2018-06-08T02:57:10.209Z,17.30
2018-06-08T02:59:39.126Z,17.20
2018-06-08T03:02:08.062Z,17.20
2018-06-08T03:04:36.984Z,17.20
2018-06-08T03:07:06.503Z,17.10
2018-06-08T03:09:35.434Z,17.20
2018-06-08T03:12:04.389Z,17.20
2018-06-08T03:14:33.404Z,17.20
2018-06-08T03:17:02.318Z,17.10
2018-06-08T03:19:31.233Z,17.20
2018-06-08T03:22:00.166Z,17.20
2018-06-08T03:24:29.116Z,17.20
2018-06-08T03:26:58.069Z,17.30
2018-06-08T03:29:26.993Z,17.30
2018-06-08T03:31:55.924Z,17.30
2018-06-08T03:34:24.902Z,17.30
2018-06-08T03:36:53.819Z,17.20
2018-06-08T03:39:22.745Z,17.20
2018-06-08T03:41:51.666Z,17.20
2018-06-08T03:44:20.576Z,17.10
2018-06-08T03:46:49.483Z,17.10
2018-06-08T03:49:18.446Z,17.00
2018-06-08T03:51:47.357Z,17.00
2018-06-08T03:54:16.282Z,17.00
2018-06-08T03:56:48.101Z,16.90
2018-06-08T03:59:18.125Z,16.90
2018-06-08T04:01:47.085Z,16.90
2018-06-08T04:04:15.989Z,17.00
2018-06-08T04:06:44.896Z,16.90
2018-06-08T04:09:13.806Z,16.90
2018-06-08T04:11:42.714Z,16.80
2018-06-08T04:14:11.652Z,16.80
2018-06-08T04:16:40.567Z,16.80
2018-06-08T04:19:09.485Z,16.80
2018-06-08T04:21:38.405Z,16.80
2018-06-08T04:24:07.382Z,16.80
2018-06-08T04:26:36.313Z,16.80
2018-06-08T04:29:05.257Z,16.80
2018-06-08T04:31:34.166Z,16.80
2018-06-08T04:34:03.133Z,16.80
2018-06-08T04:36:32.046Z,16.80
2018-06-08T04:39:00.943Z,16.80
2018-06-08T04:41:29.849Z,16.80
2018-06-08T04:43:58.751Z,16.90
2018-06-08T04:46:27.704Z,16.90
2018-06-08T04:48:56.624Z,16.90
2018-06-08T04:51:25.543Z,16.90
2018-06-08T04:53:54.453Z,16.90
2018-06-08T04:56:23.365Z,17.00
2018-06-08T04:58:52.325Z,17.00
2018-06-08T05:01:21.296Z,17.00
2018-06-08T05:03:50.229Z,17.10
2018-06-08T05:06:19.117Z,17.10
2018-06-08T05:08:48.033Z,17.10
2018-06-08T05:11:16.921Z,17.10
2018-06-08T05:13:45.874Z,17.10
2018-06-08T05:16:14.769Z,17.20
2018-06-08T05:18:43.665Z,17.20
2018-06-08T05:21:12.561Z,17.30
2018-06-08T05:23:41.450Z,17.40
2018-06-08T05:26:10.402Z,17.50
2018-06-08T05:28:39.321Z,17.60
2018-06-08T05:31:08.217Z,17.70
2018-06-08T05:33:37.105Z,17.80
2018-06-08T05:36:06.091Z,17.90
2018-06-08T05:38:35.014Z,18.00
2018-06-08T05:41:03.913Z,18.00
2018-06-08T05:43:32.800Z,18.10
2018-06-08T05:48:30.292Z,18.30
2018-06-08T05:50:59.173Z,18.50
2018-06-08T05:53:28.069Z,19.00
2018-06-08T05:55:56.961Z,19.60
2018-06-08T05:58:25.853Z,20.20
2018-06-08T06:00:54.749Z,20.80
2018-06-08T06:03:23.637Z,21.40
2018-06-08T06:05:52.530Z,21.80
2018-06-08T06:08:21.441Z,22.20
2018-06-08T06:10:50.342Z,22.60
2018-06-08T06:13:19.261Z,22.80
2018-06-08T06:15:48.185Z,23.10
2018-06-08T06:18:17.078Z,23.50
2018-06-08T06:20:46.362Z,23.90
2018-06-08T06:23:15.264Z,24.20
2018-06-08T06:25:44.177Z,24.50
2018-06-08T06:28:13.069Z,24.90
2018-06-08T06:30:41.965Z,25.20
2018-06-08T06:33:10.867Z,25.40
2018-06-08T06:35:39.761Z,25.60
2018-06-08T06:38:08.656Z,25.90
2018-06-08T06:40:37.560Z,26.00
2018-06-08T06:43:06.593Z,26.20
2018-06-08T06:45:35.509Z,26.30
2018-06-08T06:48:04.693Z,26.50
2018-06-08T06:50:33.770Z,26.70
2018-06-08T06:53:02.815Z,26.90
2018-06-08T06:55:31.919Z,27.00
2018-06-08T06:58:01.188Z,27.20
2018-06-08T07:00:30.110Z,27.20
2018-06-08T07:02:59.043Z,27.30
2018-06-08T07:08:00.730Z,27.60
2018-06-08T07:10:31.033Z,27.70
2018-06-08T07:13:00.989Z,27.80
2018-06-08T07:15:30.838Z,27.90
2018-06-08T07:18:00.966Z,27.80
2018-06-08T07:23:01.505Z,28.10
2018-06-08T07:25:32.448Z,28.10
2018-06-08T07:28:03.597Z,28.30
2018-06-08T07:30:35.722Z,28.30
2018-06-08T07:33:09.173Z,28.30
2018-06-08T07:35:44.464Z,28.30
2018-06-08T07:38:16.776Z,28.40
2018-06-08T07:40:52.522Z,28.50
2018-06-08T07:43:21.811Z,28.50
2018-06-08T07:45:53.339Z,28.50
2018-06-08T07:48:26.113Z,28.50
2018-06-08T07:51:02.106Z,28.60
2018-06-08T07:53:34.197Z,28.70
2018-06-08T07:56:07.249Z,28.70
2018-06-08T07:58:36.949Z,28.60
2018-06-08T08:01:07.217Z,28.60
2018-06-08T08:08:40.734Z,28.70
2018-06-08T08:11:14.211Z,28.70
2018-06-08T08:13:44.094Z,28.80
2018-06-08T08:16:19.931Z,29.00
2018-06-08T08:18:49.616Z,29.00
2018-06-08T08:21:19.013Z,29.10
2018-06-08T08:23:52.157Z,29.00
2018-06-08T08:26:26.315Z,29.10
2018-06-08T08:28:55.229Z,29.30
2018-06-08T08:31:24.197Z,29.20
2018-06-08T08:33:53.154Z,29.20
2018-06-08T08:36:22.110Z,29.10
2018-06-08T08:38:51.028Z,29.20
2018-06-08T08:41:20.045Z,29.20
2018-06-08T08:43:48.997Z,29.10
2018-06-08T08:46:17.914Z,29.00
2018-06-08T08:48:46.860Z,28.90
2018-06-08T08:51:15.863Z,28.90
2018-06-08T08:53:44.799Z,28.90
2018-06-08T08:56:13.765Z,28.80
2018-06-08T08:58:42.713Z,28.80
2018-06-08T09:01:11.646Z,28.80
2018-06-08T09:03:40.594Z,28.70
2018-06-08T09:06:09.525Z,28.70
2018-06-08T09:08:38.436Z,28.50
2018-06-08T09:11:07.393Z,28.50
2018-06-08T09:13:36.562Z,28.40
2018-06-08T09:16:06.657Z,28.40
2018-06-08T09:18:36.825Z,28.50
2018-06-08T09:21:06.832Z,28.40
2018-06-08T09:23:38.684Z,28.30
2018-06-08T09:26:11.486Z,28.30
2018-06-08T09:28:47.504Z,28.40
2018-06-08T09:31:21.957Z,28.40
2018-06-08T09:33:53.934Z,28.40
2018-06-08T09:36:30.550Z,28.50
2018-06-08T09:39:06.484Z,28.60
2018-06-08T09:41:37.199Z,28.70
2018-06-08T09:44:09.731Z,28.90
2018-06-08T09:46:43.519Z,29.00
2018-06-08T09:49:16.706Z,29.00
2018-06-08T09:51:50.397Z,29.20
2018-06-08T09:54:23.334Z,29.30
2018-06-08T09:56:56.042Z,29.30
2018-06-08T09:59:26.435Z,29.30
2018-06-08T10:02:00.586Z,29.40
2018-06-08T10:04:34.691Z,29.40
2018-06-08T10:07:09.703Z,29.50
2018-06-08T10:09:40.511Z,29.50
2018-06-08T10:12:09.970Z,29.50
2018-06-08T10:14:43.218Z,29.60
2018-06-08T10:17:20.765Z,29.70
2018-06-08T10:19:51.842Z,29.50
2018-06-08T10:24:51.896Z,29.80
2018-06-08T10:27:24.498Z,29.90
2018-06-08T10:29:57.177Z,29.90
2018-06-08T10:32:27.628Z,29.90
2018-06-08T10:34:58.082Z,29.70
2018-06-08T10:37:27.558Z,29.90
2018-06-08T10:40:00.925Z,29.60
2018-06-08T10:42:33.858Z,29.20
2018-06-08T10:45:07.696Z,29.10
2018-06-08T10:47:41.226Z,29.20
2018-06-08T10:50:12.834Z,29.50
2018-06-08T10:52:43.278Z,29.90
2018-06-08T10:55:14.835Z,30.00
2018-06-08T10:57:45.141Z,30.20
2018-06-08T11:00:19.428Z,30.40
2018-06-08T11:02:50.934Z,30.60
2018-06-08T11:05:25.670Z,30.80
2018-06-08T11:08:00.876Z,30.90
2018-06-08T11:10:33.717Z,30.90
2018-06-08T11:13:04.634Z,31.10
2018-06-08T11:15:37.218Z,31.10
2018-06-08T11:18:11.251Z,30.90
2018-06-08T11:20:43.254Z,30.90
2018-06-08T11:25:49.277Z,30.80
2018-06-08T11:28:20.595Z,31.00
2018-06-08T11:30:50.016Z,30.80
2018-06-08T11:33:20.622Z,30.50
2018-06-08T11:35:54.744Z,30.30
2018-06-08T11:38:27.912Z,30.30
2018-06-08T11:40:58.419Z,30.10
2018-06-08T11:43:28.418Z,29.90
2018-06-08T11:45:58.854Z,29.70
2018-06-08T11:48:29.449Z,29.60
2018-06-08T11:51:00.994Z,29.50
2018-06-08T11:53:33.966Z,29.20
2018-06-08T11:58:39.083Z,28.90
2018-06-08T12:01:09.403Z,28.80
2018-06-08T12:03:44.154Z,29.10
2018-06-08T12:06:19.166Z,29.20
2018-06-08T12:08:49.318Z,29.50
2018-06-08T12:11:21.205Z,29.50
2018-06-08T12:13:54.815Z,29.70
2018-06-08T12:16:31.113Z,29.80
2018-06-08T12:19:02.741Z,30.00
2018-06-08T12:21:33.734Z,30.10
2018-06-08T12:24:06.977Z,30.10
2018-06-08T12:26:39.825Z,30.30
2018-06-08T12:29:14.542Z,30.50
2018-06-08T12:31:50.028Z,30.60
2018-06-08T12:34:22.741Z,30.70
2018-06-08T12:36:54.379Z,30.70
2018-06-08T12:39:27.809Z,30.80
2018-06-08T12:42:02.270Z,30.90
2018-06-08T12:44:34.429Z,30.80
2018-06-08T12:47:05.982Z,30.90
2018-06-08T12:49:44.596Z,30.80
2018-06-08T12:52:21.081Z,30.80
2018-06-08T12:54:56.370Z,30.80
2018-06-08T13:00:13.961Z,30.90
2018-06-08T13:02:46.392Z,30.80
2018-06-08T13:05:20.040Z,30.80
2018-06-08T13:07:51.575Z,30.80
2018-06-08T13:10:25.567Z,30.80
2018-06-08T13:12:57.386Z,30.80
2018-06-08T13:15:30.411Z,30.80
2018-06-08T13:18:00.607Z,30.70
2018-06-08T13:20:36.056Z,30.70
2018-06-08T13:23:11.349Z,30.70
2018-06-08T13:25:40.943Z,30.70
2018-06-08T13:28:18.464Z,30.60
2018-06-08T13:30:53.410Z,30.60
2018-06-08T13:33:25.544Z,30.60
2018-06-08T13:35:56.534Z,30.60
2018-06-08T13:38:29.686Z,30.60
2018-06-08T13:41:03.630Z,30.50
2018-06-08T13:43:37.558Z,30.50
2018-06-08T13:46:19.358Z,30.50
2018-06-08T13:48:52.868Z,30.50
2018-06-08T13:51:26.085Z,30.50
2018-06-08T13:53:58.102Z,30.50
2018-06-08T13:56:29.481Z,30.50
2018-06-08T13:59:01.091Z,30.40
2018-06-08T14:01:32.341Z,30.40
2018-06-08T14:04:05.618Z,30.30
2018-06-08T14:06:35.843Z,30.30
2018-06-08T14:09:16.842Z,30.20
2018-06-08T14:11:51.217Z,30.20
2018-06-08T14:14:21.709Z,30.10
2018-06-08T14:19:21.329Z,29.90
2018-06-08T14:21:56.106Z,29.80
2018-06-08T14:24:29.681Z,29.80
2018-06-08T14:27:03.345Z,29.80
2018-06-08T14:29:39.109Z,29.70
2018-06-08T14:32:12.305Z,29.70
2018-06-08T14:34:52.710Z,29.70
2018-06-08T14:37:26.367Z,29.60
2018-06-08T14:40:01.616Z,29.40
2018-06-08T14:42:31.646Z,29.30
2018-06-08T14:45:11.549Z,29.00
2018-06-08T14:47:43.393Z,28.90
2018-06-08T14:50:18.684Z,28.70
2018-06-08T14:52:56.970Z,28.60
2018-06-08T14:55:31.026Z,28.40
2018-06-08T14:58:02.033Z,28.30
2018-06-08T15:00:34.509Z,28.30
2018-06-08T15:03:08.755Z,28.30
2018-06-08T15:05:38.186Z,28.30
2018-06-08T15:08:10.479Z,28.20
2018-06-08T15:10:40.591Z,28.20
2018-06-08T15:13:14.849Z,28.10
2018-06-08T15:15:48.777Z,28.00
2018-06-08T15:18:22.812Z,27.90
2018-06-08T15:20:54.789Z,27.90
2018-06-08T15:23:29.300Z,27.90
2018-06-08T15:26:01.898Z,27.90
2018-06-08T15:28:35.261Z,27.90
2018-06-08T15:31:04.503Z,27.90
2018-06-08T15:33:38.127Z,27.90
2018-06-08T15:36:10.332Z,27.90
2018-06-08T15:38:43.397Z,27.80
2018-06-08T15:41:12.961Z,27.80
2018-06-08T15:43:47.009Z,27.70
2018-06-08T15:46:21.358Z,27.60
2018-06-08T15:48:54.721Z,27.60
2018-06-08T15:51:29.069Z,27.70
2018-06-08T15:54:00.194Z,27.70
2018-06-08T15:56:34.908Z,27.70
2018-06-08T15:59:08.628Z,27.60
2018-06-08T16:01:40.612Z,27.50
2018-06-08T16:04:13.657Z,27.60
2018-06-08T16:06:47.671Z,27.50
2018-06-08T16:09:20.981Z,27.50
2018-06-08T16:11:53.694Z,27.40
2018-06-08T16:14:26.918Z,27.40
2018-06-08T16:16:59.813Z,27.40
2018-06-08T16:19:32.807Z,27.30
2018-06-08T16:22:05.706Z,27.20
2018-06-08T16:24:39.785Z,27.20
2018-06-08T16:27:12.847Z,27.10
2018-06-08T16:29:45.757Z,27.10
2018-06-08T16:32:18.698Z,27.10
2018-06-08T16:34:51.886Z,27.00
2018-06-08T16:37:23.986Z,27.00
2018-06-08T16:39:56.911Z,26.90
2018-06-08T16:42:29.821Z,26.90
2018-06-08T16:45:02.842Z,26.90
2018-06-08T16:47:35.897Z,26.80
2018-06-08T16:50:09.026Z,26.80
2018-06-08T16:52:41.012Z,26.70
2018-06-08T16:55:10.045Z,26.70
2018-06-08T16:57:38.957Z,26.60
2018-06-08T17:00:07.890Z,26.50
2018-06-08T17:02:36.805Z,26.50
2018-06-08T17:05:06.041Z,26.50
2018-06-08T17:07:34.988Z,26.50
2018-06-08T17:10:04.034Z,26.40
2018-06-08T17:12:33.015Z,26.40
2018-06-08T17:15:01.984Z,26.30
2018-06-08T17:17:30.898Z,26.30
2018-06-08T17:19:59.820Z,26.30
2018-06-08T17:22:28.729Z,26.20
2018-06-08T17:24:57.647Z,26.20
2018-06-08T17:27:26.586Z,26.20
2018-06-08T17:29:55.499Z,26.10
2018-06-08T17:32:24.438Z,26.10
2018-06-08T17:34:53.367Z,26.20
2018-06-08T17:37:22.355Z,26.20
2018-06-08T17:39:51.277Z,26.20
2018-06-08T17:42:20.225Z,26.10
2018-06-08T17:44:49.141Z,26.10
2018-06-08T17:47:18.078Z,26.00
2018-06-08T17:49:47.031Z,26.00
2018-06-08T17:52:15.949Z,26.00
2018-06-08T17:54:44.883Z,25.90
2018-06-08T17:57:13.852Z,25.80
2018-06-08T17:59:42.778Z,25.80
2018-06-08T18:02:11.778Z,25.70
2018-06-08T18:04:40.697Z,25.70
2018-06-08T18:07:09.642Z,25.60
2018-06-08T18:09:38.577Z,25.60
2018-06-08T18:12:07.537Z,25.50
2018-06-08T18:17:05.068Z,25.50
2018-06-08T18:19:33.970Z,25.50
2018-06-08T18:22:02.930Z,25.40
2018-06-08T18:24:31.890Z,25.40
2018-06-08T18:27:00.835Z,25.40
2018-06-08T18:29:29.762Z,25.30
2018-06-08T18:31:58.681Z,25.20
2018-06-08T18:34:28.863Z,25.10
2018-06-08T18:36:57.832Z,25.10
2018-06-08T18:39:26.717Z,25.00
2018-06-08T18:41:55.617Z,24.90
2018-06-08T18:44:24.979Z,24.80
2018-06-08T18:46:53.885Z,24.70
2018-06-08T18:49:22.812Z,24.70
2018-06-08T18:51:51.859Z,24.70
2018-06-08T18:54:20.871Z,24.60
2018-06-08T18:56:49.829Z,24.50
2018-06-08T18:59:18.731Z,24.40
2018-06-08T19:01:47.718Z,24.40
2018-06-08T19:04:16.649Z,24.30
2018-06-08T19:06:49.675Z,24.20
2018-06-08T19:09:22.639Z,24.10
2018-06-08T19:11:52.578Z,24.10
2018-06-08T19:14:22.365Z,24.00
2018-06-08T19:16:53.364Z,23.90
2018-06-08T19:19:24.185Z,23.80
2018-06-08T19:21:53.956Z,23.80
2018-06-08T19:24:25.242Z,23.70
2018-06-08T19:26:57.900Z,23.50
2018-06-08T19:29:28.523Z,23.50
2018-06-08T19:31:58.771Z,23.40
2018-06-08T19:34:27.812Z,23.30
2018-06-08T19:36:56.948Z,23.30
2018-06-08T19:39:25.881Z,23.20
2018-06-08T19:41:56.426Z,23.20
2018-06-08T19:44:25.615Z,23.10
2018-06-08T19:46:56.195Z,23.00
2018-06-08T19:49:25.252Z,22.90
2018-06-08T19:51:54.282Z,22.80
2018-06-08T19:54:23.618Z,22.70
2018-06-08T19:56:52.897Z,22.60
2018-06-08T19:59:21.797Z,22.50
2018-06-08T20:01:50.725Z,22.40
2018-06-08T20:04:20.469Z,22.40
2018-06-08T20:06:49.397Z,22.40
2018-06-08T20:09:18.358Z,22.30
2018-06-08T20:11:47.329Z,22.30
2018-06-08T20:14:16.353Z,22.20
2018-06-08T20:16:45.307Z,22.10
2018-06-08T20:19:14.201Z,22.00
2018-06-08T20:21:43.149Z,21.80
2018-06-08T20:24:12.037Z,21.60
2018-06-08T20:26:40.929Z,21.50
2018-06-08T20:29:09.885Z,21.40
2018-06-08T20:31:38.788Z,21.40
2018-06-08T20:34:07.722Z,21.40
2018-06-08T20:36:36.699Z,21.40
2018-06-08T20:39:07.768Z,21.30
2018-06-08T20:41:36.721Z,21.20
2018-06-08T20:44:05.629Z,21.10
2018-06-08T20:46:34.562Z,21.00
2018-06-08T20:49:03.502Z,20.90
2018-06-08T20:51:32.397Z,20.90
2018-06-08T20:54:13.202Z,20.90
2018-06-08T20:56:46.574Z,20.70
2018-06-08T20:59:18.174Z,20.60
2018-06-08T21:01:47.110Z,20.50
2018-06-08T21:04:16.074Z,20.40
2018-06-08T21:06:45.025Z,20.30
2018-06-08T21:09:13.979Z,20.30
2018-06-08T21:11:42.901Z,20.20
2018-06-08T21:14:11.866Z,20.20
2018-06-08T21:16:40.962Z,20.10
2018-06-08T21:19:09.895Z,20.00
2018-06-08T21:21:38.838Z,20.00
2018-06-08T21:24:07.764Z,20.00
2018-06-08T21:26:36.736Z,20.00
2018-06-08T21:29:05.844Z,19.90
2018-06-08T21:31:34.789Z,19.90
2018-06-08T21:34:03.719Z,19.90
2018-06-08T21:36:37.278Z,19.80
2018-06-08T21:39:07.261Z,19.80
2018-06-08T21:41:39.680Z,19.80
2018-06-08T21:44:16.437Z,19.80
2018-06-08T21:46:45.436Z,19.80
2018-06-08T21:49:14.381Z,19.70
2018-06-08T21:51:51.750Z,19.60
2018-06-08T21:54:31.413Z,19.60
2018-06-08T21:57:16.754Z,19.40
2018-06-08T21:59:51.152Z,19.40
2018-06-08T22:02:20.421Z,19.30
2018-06-08T22:04:51.021Z,19.30
2018-06-08T22:07:28.520Z,19.20
2018-06-08T22:09:57.494Z,19.20
2018-06-08T22:12:26.492Z,19.10
2018-06-08T22:14:55.541Z,19.00
2018-06-08T22:17:24.541Z,19.00
2018-06-08T22:19:53.477Z,18.90
2018-06-08T22:22:22.586Z,18.90
2018-06-08T22:24:53.234Z,18.80
2018-06-08T22:27:23.463Z,18.80
2018-06-08T22:29:52.470Z,18.80
2018-06-08T22:32:22.030Z,18.80
2018-06-08T22:34:52.005Z,18.80
2018-06-08T22:37:26.422Z,18.80
2018-06-08T22:40:02.788Z,18.80
2018-06-08T22:42:35.134Z,18.90
2018-06-08T22:45:08.963Z,18.90
2018-06-08T22:47:45.094Z,18.90
2018-06-08T22:50:15.732Z,18.90
2018-06-08T22:52:50.304Z,18.70
2018-06-08T22:55:24.254Z,18.70
2018-06-08T22:57:55.901Z,18.60
2018-06-08T23:00:28.559Z,18.60
2018-06-08T23:02:57.571Z,18.50
2018-06-08T23:05:26.505Z,18.50
2018-06-08T23:07:56.415Z,18.40
2018-06-08T23:10:25.418Z,18.40
2018-06-08T23:12:54.346Z,18.30
2018-06-08T23:15:23.309Z,18.30
2018-06-08T23:17:52.252Z,18.20
2018-06-08T23:20:21.185Z,18.20
2018-06-08T23:22:50.113Z,18.10
2018-06-08T23:25:19.052Z,18.10
2018-06-08T23:27:47.996Z,18.10
2018-06-08T23:30:16.934Z,18.10
2018-06-08T23:32:45.849Z,18.00
2018-06-08T23:35:14.762Z,18.00
2018-06-08T23:37:43.718Z,18.00
2018-06-08T23:40:12.639Z,18.00
2018-06-08T23:42:41.561Z,18.00
2018-06-08T23:45:10.509Z,18.00
2018-06-08T23:47:39.429Z,18.00
2018-06-08T23:50:08.364Z,17.90
2018-06-08T23:52:37.335Z,18.00
2018-06-08T23:55:06.242Z,17.90
2018-06-08T23:57:35.165Z,17.80
